EDT,Max TemperatureF,Mean TemperatureF,Min TemperatureF,Max Dew PointF,MeanDew PointF,Min DewpointF,Max Humidity, Mean Humidity, Min Humidity, Max Sea Level PressureIn, Mean Sea Level PressureIn, Min Sea Level PressureIn, Max VisibilityMiles, Mean VisibilityMiles, Min VisibilityMiles, Max Wind SpeedMPH, Mean Wind SpeedMPH, Max Gust SpeedMPH,PrecipitationIn, CloudCover, Events, WindDirDegrees
2014-8-1,83,77,70,69,67,66,90,76,62,30.20,30.18,30.15,10,9,4,17,6,24,0.19,7,Rain,167
2014-8-2,77,73,68,67,65,61,87,76,64,30.18,30.14,30.09,10,9,4,18,8,23,0.36,8,Rain,69
2014-8-3,77,72,67,70,66,64,93,81,69,30.14,30.09,30.04,10,9,6,12,6,19,0.23,7,Rain,86
2014-8-4,84,78,71,69,66,61,93,70,47,30.09,30.06,30.04,10,8,4,10,6,18,0.00,5,,235
2014-8-5,90,80,69,68,63,58,84,60,36,30.06,30.00,29.93,10,10,10,13,5,15,0.00,3,,199
2014-8-6,82,76,69,65,61,59,73,62,51,29.94,29.91,29.88,10,10,10,13,8,17,T,5,Rain,308
2014-8-7,84,75,66,62,55,52,73,55,37,30.04,29.97,29.93,10,10,10,16,8,22,0.00,3,,345
2014-8-8,82,73,63,56,53,50,65,50,34,30.13,30.08,30.05,10,10,10,14,8,20,0.00,2,,314
2014-8-9,86,77,67,62,56,50,73,52,31,30.14,30.11,30.07,10,10,10,10,5,16,0.00,2,,238
2014-8-10,88,78,67,63,58,52,81,56,30,30.14,30.12,30.08,10,10,10,12,5,15,0.00,3,,216
2014-8-11,85,76,66,66,60,56,87,62,37,30.15,30.11,30.07,10,10,10,15,6,18,0.00,5,,163
2014-8-12,79,74,68,70,68,65,90,83,76,30.06,29.93,29.79,10,7,2,25,11,32,1.08,8,Rain,126
2014-8-13,85,77,69,67,65,59,90,67,44,29.82,29.75,29.71,10,10,7,24,11,31,T,6,Rain,336
2014-8-14,80,71,62,63,54,48,87,62,37,29.94,29.89,29.85,10,10,5,26,9,33,0.25,3,Rain-Thunderstorm,269
2014-8-15,77,69,60,57,49,45,72,53,33,30.01,29.97,29.93,10,10,10,20,9,25,0.00,3,,294
2014-8-16,81,71,61,58,54,49,78,57,36,30.03,29.99,29.94,10,10,10,17,6,20,0.00,4,,230
2014-8-17,84,75,65,63,60,54,87,65,43,29.94,29.90,29.86,10,10,9,17,8,22,T,5,Rain,285
2014-8-18,83,73,63,63,57,53,73,56,39,29.95,29.89,29.83,10,10,10,13,6,22,0.00,3,,286
2014-8-19,87,77,66,65,62,56,79,64,48,29.94,29.88,29.84,10,10,10,12,5,16,0.00,4,,105
2014-8-20,86,79,71,67,64,60,84,66,47,30.04,29.98,29.93,10,10,10,14,5,25,T,6,,163
2014-8-21,83,76,68,69,66,63,84,73,62,30.07,30.03,29.99,10,10,10,14,5,19,0.00,7,,170
2014-8-22,79,74,68,68,66,61,90,79,67,30.04,30.00,29.97,10,10,7,16,8,22,0.08,7,Rain,82
2014-8-23,74,69,64,66,64,60,87,80,73,30.12,30.07,30.02,10,7,2,14,7,21,0.25,7,Rain,76
2014-8-24,83,74,64,62,60,55,87,65,42,30.17,30.13,30.10,10,10,10,14,7,21,0.00,4,,48
2014-8-25,86,75,63,64,60,57,84,62,40,30.19,30.16,30.12,10,10,10,10,5,19,0.00,2,,18
2014-8-26,90,80,69,66,62,60,79,59,38,30.17,30.13,30.08,10,10,10,12,5,15,0.00,2,,153
2014-8-27,89,78,67,67,64,60,87,64,40,30.09,29.99,29.89,10,10,10,10,8,15,0.00,1,,226
2014-8-28,81,74,66,68,56,48,74,55,35,30.10,29.95,29.86,10,10,10,21,13,29,0.00,2,,330
2014-8-29,81,71,61,59,51,47,73,53,33,30.25,30.17,30.10,10,10,10,13,6,16,0.00,4,,70
2014-8-30,81,71,60,64,61,58,84,69,54,30.27,30.22,30.16,10,10,10,13,6,16,0.00,6,,147
2014-8-31,93,83,72,75,70,65,94,72,49,30.16,30.06,29.98,10,8,1,36,9,44,1.11,7,Rain-Thunderstorm,205